Time;durP1;ratioP1;P1;durP2;ratioP2;P2;SDS_P1;SDS_P2;PMS_P1;PMS_P2;Temp;Humidity;BMP_temperature;BMP_pressure;BME280_temperature;BME280_humidity;BME280_pressure;Samples;Min_cycle;Max_cycle;Signal;HPM_P1;HPM_P2
2024/01/27 00:01:32;;;;;;;4.13;2.47;;;;;;;7.05;60.90;100439.16;5076334;28;20304;-65
2024/01/27 00:03:58;;;;;;;5.03;3.00;;;;;;;7.12;61.55;100443.94;5077043;28;20073;-64
2024/01/27 00:06:24;;;;;;;5.15;2.47;;;;;;;7.10;60.77;100440.59;5077363;28;20041;-63
2024/01/27 00:08:49;;;;;;;4.97;2.38;;;;;;;7.13;60.62;100445.63;5077013;28;20078;-63
2024/01/27 00:11:15;;;;;;;5.10;2.63;;;;;;;7.12;61.00;100449.22;5076178;28;20234;-64
2024/01/27 00:13:40;;;;;;;6.75;2.50;;;;;;;7.17;60.46;100457.56;5075203;28;20033;-64
2024/01/27 00:16:07;;;;;;;4.70;2.50;;;;;;;7.16;60.56;100446.19;5076627;28;20036;-63
2024/01/27 00:18:32;;;;;;;7.40;2.60;;;;;;;7.23;60.42;100452.66;5076947;28;20342;-63
2024/01/27 00:20:58;;;;;;;4.47;2.33;;;;;;;7.22;60.59;100448.34;5077129;28;20071;-63
2024/01/27 00:23:23;;;;;;;5.15;2.40;;;;;;;7.20;60.89;100459.97;5075987;28;20044;-63
2024/01/27 00:25:49;;;;;;;3.28;2.05;;;;;;;7.15;60.10;100462.13;5076263;28;20333;-63
2024/01/27 00:28:14;;;;;;;5.95;2.55;;;;;;;7.20;59.88;100467.88;5076969;28;20025;-64
2024/01/27 00:30:40;;;;;;;4.40;2.47;;;;;;;7.18;60.48;100459.25;5077121;28;20037;-64
2024/01/27 00:33:05;;;;;;;3.63;2.58;;;;;;;7.28;60.00;100455.78;5076865;28;20349;-63
2024/01/27 00:35:31;;;;;;;5.75;3.67;;;;;;;7.31;59.25;100444.16;5076848;28;20035;-63
2024/01/27 00:37:57;;;;;;;4.63;2.50;;;;;;;7.26;59.68;100438.41;5076596;28;20044;-63
2024/01/27 00:40:22;;;;;;;5.00;2.35;;;;;;;7.31;59.12;100434.47;5076734;28;20063;-64
2024/01/27 00:42:48;;;;;;;5.43;2.90;;;;;;;7.38;58.92;100445.34;5076725;28;20044;-64
2024/01/27 00:45:13;;;;;;;9.95;3.60;;;;;;;7.43;58.65;100443.16;5081065;28;20105;-63
2024/01/27 00:47:39;;;;;;;6.32;3.38;;;;;;;7.50;58.34;100438.22;5080841;28;20033;-63
2024/01/27 00:50:05;;;;;;;8.63;3.47;;;;;;;7.50;58.15;100428.53;5080732;28;20271;-63
2024/01/27 00:52:31;;;;;;;4.97;3.25;;;;;;;7.46;58.56;100415.72;5080199;28;20078;-63
2024/01/27 00:54:57;;;;;;;7.60;3.85;;;;;;;7.53;58.30;100417.72;5080098;28;20285;-63
2024/01/27 00:57:22;;;;;;;10.13;3.90;;;;;;;7.44;58.47;100423.75;5080144;28;20044;-64
2024/01/27 00:59:47;;;;;;;8.75;3.88;;;;;;;7.41;58.74;100418.75;5080486;28;20040;-64
2024/01/27 01:02:13;;;;;;;6.80;4.00;;;;;;;7.40;58.03;100413.59;5079148;28;20044;-63
2024/01/27 01:04:38;;;;;;;7.85;3.30;;;;;;;7.39;58.61;100418.03;5079998;28;20074;-63
2024/01/27 01:07:04;;;;;;;4.82;2.22;;;;;;;7.27;58.05;100408.47;5079616;28;20038;-62
2024/01/27 01:09:29;;;;;;;4.22;2.63;;;;;;;7.14;58.50;100400.72;5080999;28;20078;-64
2024/01/27 01:11:55;;;;;;;9.48;2.90;;;;;;;7.04;59.18;100384.00;5079737;28;20072;-63
2024/01/27 01:14:20;;;;;;;4.15;2.55;;;;;;;6.98;59.65;100384.47;5079698;28;20033;-63
2024/01/27 01:16:46;;;;;;;4.57;2.50;;;;;;;6.99;58.67;100380.88;5079239;28;20044;-63
2024/01/27 01:19:11;;;;;;;4.18;2.40;;;;;;;6.98;58.48;100377.41;5080084;28;20323;-63
2024/01/27 01:21:37;;;;;;;3.55;2.70;;;;;;;7.02;58.82;100376.22;5079890;28;20040;-63
2024/01/27 01:24:03;;;;;;;5.30;2.65;;;;;;;7.02;58.78;100380.63;5080443;28;20028;-64
2024/01/27 01:26:28;;;;;;;8.63;3.53;;;;;;;7.00;59.04;100374.66;5079321;28;20201;-64
2024/01/27 01:28:54;;;;;;;3.70;2.58;;;;;;;6.99;58.73;100373.00;5079932;28;20047;-63
2024/01/27 01:31:19;;;;;;;5.07;2.67;;;;;;;7.02;58.73;100364.84;5079903;28;20036;-63
2024/01/27 01:33:44;;;;;;;4.90;2.72;;;;;;;7.03;59.03;100369.16;5079428;28;20021;-63
2024/01/27 01:36:10;;;;;;;4.72;2.42;;;;;;;7.07;58.69;100369.75;5079838;28;20033;-65
2024/01/27 01:38:35;;;;;;;4.70;3.10;;;;;;;7.02;59.45;100365.69;5079874;28;20043;-63
2024/01/27 01:41:01;;;;;;;6.78;4.10;;;;;;;6.89;59.97;100364.16;5079277;28;20044;-63
2024/01/27 01:43:27;;;;;;;19.00;10.55;;;;;;;6.85;59.34;100358.31;5079468;28;20072;-63
2024/01/27 01:45:56;;;;;;;15.57;9.35;;;;;;;6.69;60.33;100349.97;5079495;28;20074;-64
2024/01/27 01:48:21;;;;;;;8.70;5.20;;;;;;;6.66;60.38;100358.94;5079568;28;20032;-63
2024/01/27 01:50:47;;;;;;;19.33;9.70;;;;;;;6.79;60.72;100348.28;5079368;28;20078;-64
2024/01/27 01:53:13;;;;;;;17.40;7.63;;;;;;;6.88;60.12;100344.91;5079012;28;20107;-64
2024/01/27 01:55:39;;;;;;;10.07;5.32;;;;;;;6.87;59.97;100343.22;5077973;28;20036;-63
2024/01/27 01:58:05;;;;;;;6.88;4.65;;;;;;;6.90;60.28;100347.41;5078921;28;20108;-63
2024/01/27 02:00:31;;;;;;;8.05;4.53;;;;;;;6.95;59.92;100340.81;5078469;28;20042;-63
2024/01/27 02:02:57;;;;;;;7.65;4.60;;;;;;;6.93;60.42;100347.16;5078870;28;20052;-65
2024/01/27 02:05:23;;;;;;;4.53;2.95;;;;;;;6.55;60.82;100329.19;5079021;28;20036;-63
2024/01/27 02:07:48;;;;;;;5.32;2.83;;;;;;;6.34;60.77;100326.44;5079781;28;20032;-63
2024/01/27 02:10:16;;;;;;;3.10;2.40;;;;;;;5.91;62.89;100332.41;5079182;28;20348;-63
2024/01/27 02:12:42;;;;;;;5.80;2.80;;;;;;;5.77;63.59;100335.22;5078915;28;20028;-63
2024/01/27 02:15:15;;;;;;;4.32;2.72;;;;;;;5.80;63.65;100342.84;5079075;28;20097;-63
2024/01/27 02:17:41;;;;;;;4.95;3.42;;;;;;;5.89;63.05;100343.94;5078824;28;20040;-63
2024/01/27 02:20:07;;;;;;;6.57;2.92;;;;;;;5.81;64.08;100331.41;5078888;28;20044;-64
2024/01/27 02:22:36;;;;;;;4.75;2.65;;;;;;;5.95;64.52;100338.25;5078922;28;20044;-64
2024/01/27 02:25:03;;;;;;;8.65;3.58;;;;;;;5.94;63.92;100344.47;5078360;28;20024;-63
2024/01/27 02:27:28;;;;;;;7.07;4.07;;;;;;;6.02;64.17;100348.19;5078815;28;20101;-63
2024/01/27 02:29:54;;;;;;;9.15;3.85;;;;;;;6.07;63.34;100342.56;5079173;28;20044;-62
2024/01/27 02:32:19;;;;;;;6.80;4.13;;;;;;;6.06;63.24;100351.41;5078502;28;20283;-64
2024/01/27 02:34:44;;;;;;;10.27;4.35;;;;;;;6.07;63.94;100356.53;5078598;28;20044;-64
2024/01/27 02:37:10;;;;;;;9.18;4.68;;;;;;;5.96;64.38;100353.91;5078732;28;20032;-62
2024/01/27 02:39:36;;;;;;;6.13;4.25;;;;;;;6.00;63.26;100352.72;5078524;28;20501;-63
2024/01/27 02:42:02;;;;;;;7.20;4.30;;;;;;;6.08;63.31;100354.75;5077642;28;20076;-63
2024/01/27 02:44:27;;;;;;;7.80;4.03;;;;;;;6.04;62.62;100348.06;5078323;28;20289;-64
2024/01/27 02:46:53;;;;;;;8.52;4.22;;;;;;;6.11;62.42;100341.38;5078262;28;20090;-63
2024/01/27 02:49:18;;;;;;;6.10;4.07;;;;;;;6.14;62.15;100335.03;5078818;28;20059;-63
2024/01/27 02:51:44;;;;;;;6.07;3.58;;;;;;;6.11;62.52;100333.47;5078675;28;20040;-62
2024/01/27 02:54:10;;;;;;;5.78;3.17;;;;;;;6.02;61.99;100328.94;5078030;28;20033;-63
2024/01/27 02:56:35;;;;;;;5.47;3.20;;;;;;;6.03;62.44;100326.19;5078299;28;20032;-64
2024/01/27 02:59:01;;;;;;;5.88;2.97;;;;;;;6.13;62.65;100318.41;5078270;28;20052;-64
2024/01/27 03:01:26;;;;;;;6.05;3.17;;;;;;;6.16;61.83;100325.25;5078100;28;20040;-62
2024/01/27 03:03:52;;;;;;;8.30;4.03;;;;;;;6.20;62.19;100321.41;5077960;28;20059;-63
2024/01/27 03:06:17;;;;;;;7.72;3.58;;;;;;;6.17;62.58;100319.84;5077567;28;20032;-63
2024/01/27 03:08:43;;;;;;;7.57;3.92;;;;;;;6.24;62.16;100310.56;5077764;28;20028;-64
2024/01/27 03:11:08;;;;;;;4.70;3.42;;;;;;;6.35;61.33;100313.19;5077898;28;20068;-64
2024/01/27 03:13:34;;;;;;;3.40;2.38;;;;;;;6.34;61.79;100308.03;5077571;28;20040;-63
2024/01/27 03:15:59;;;;;;;6.88;3.47;;;;;;;6.36;61.85;100319.28;5076755;28;20040;-63
2024/01/27 03:18:25;;;;;;;4.93;3.15;;;;;;;6.33;61.18;100307.22;5075258;28;20028;-64
2024/01/27 03:20:50;;;;;;;7.55;3.42;;;;;;;6.34;61.17;100298.34;5077988;28;20048;-64
2024/01/27 03:23:16;;;;;;;5.75;3.22;;;;;;;6.39;60.85;100295.38;5077282;28;20048;-63
2024/01/27 03:25:41;;;;;;;6.40;4.00;;;;;;;6.42;60.72;100297.75;5075846;28;20086;-63
2024/01/27 03:28:07;;;;;;;8.40;3.80;;;;;;;6.31;60.46;100295.97;5076493;28;20040;-63
2024/01/27 03:30:32;;;;;;;5.80;4.00;;;;;;;6.14;61.13;100296.44;5075755;28;20220;-63
2024/01/27 03:32:58;;;;;;;8.27;4.78;;;;;;;6.00;60.91;100300.13;5075950;28;20107;-64
2024/01/27 03:35:24;;;;;;;10.30;4.55;;;;;;;5.83;60.77;100297.94;5077558;28;20413;-64
2024/01/27 03:37:49;;;;;;;4.15;2.70;;;;;;;5.71;60.89;100304.16;5076344;28;20253;-63
2024/01/27 03:40:15;;;;;;;5.93;2.17;;;;;;;5.70;61.23;100300.69;5077742;28;20036;-63
2024/01/27 03:42:40;;;;;;;2.33;2.10;;;;;;;5.82;61.93;100293.66;5074391;28;20047;-64
2024/01/27 03:45:06;;;;;;;5.50;2.45;;;;;;;5.84;61.88;100280.38;5077133;28;20239;-64
2024/01/27 03:47:31;;;;;;;4.65;2.25;;;;;;;5.78;61.40;100271.19;5076550;28;20051;-63
2024/01/27 03:49:57;;;;;;;4.43;2.72;;;;;;;5.88;61.87;100273.94;5077273;28;20055;-63
2024/01/27 03:52:22;;;;;;;3.90;2.30;;;;;;;5.89;60.86;100291.38;5074620;28;20037;-63
2024/01/27 03:54:48;;;;;;;2.53;1.90;;;;;;;5.87;61.35;100277.53;5077132;28;20028;-62
2024/01/27 03:57:13;;;;;;;3.60;2.20;;;;;;;5.81;61.16;100262.22;5075768;28;20234;-64
2024/01/27 03:59:41;;;;;;;3.63;2.30;;;;;;;5.80;60.79;100269.28;5076633;28;20071;-64
2024/01/27 04:02:07;;;;;;;7.53;3.83;;;;;;;5.78;60.90;100276.44;5076233;28;20050;-63
2024/01/27 04:04:32;;;;;;;6.05;3.33;;;;;;;5.72;60.43;100277.75;5076369;28;20626;-63
2024/01/27 04:06:58;;;;;;;4.22;2.25;;;;;;;5.74;59.93;100272.38;5076286;28;20044;-63
2024/01/27 04:09:25;;;;;;;5.95;2.38;;;;;;;5.84;59.80;100273.34;5076471;28;20335;-64
2024/01/27 04:11:51;;;;;;;3.70;2.22;;;;;;;5.93;58.93;100277.06;5076091;28;20121;-63
2024/01/27 04:14:17;;;;;;;3.72;2.30;;;;;;;6.01;58.50;100274.69;5075992;28;20235;-63
2024/01/27 04:16:42;;;;;;;5.13;2.20;;;;;;;6.00;58.46;100265.13;5076820;28;20344;-63
2024/01/27 04:19:08;;;;;;;5.15;2.33;;;;;;;6.19;58.00;100256.63;5074907;28;20045;-64
2024/01/27 04:21:33;;;;;;;4.38;2.42;;;;;;;6.19;58.31;100262.72;5077252;28;20253;-63
2024/01/27 04:23:59;;;;;;;3.92;2.33;;;;;;;6.29;57.58;100263.69;5074966;28;20060;-62
2024/01/27 04:26:24;;;;;;;6.57;3.63;;;;;;;6.33;57.77;100259.03;5076911;28;20255;-62
2024/01/27 04:28:50;;;;;;;8.13;3.20;;;;;;;6.37;57.75;100260.47;5076105;28;20067;-62
2024/01/27 04:31:15;;;;;;;5.13;3.17;;;;;;;6.14;58.53;100262.25;5076562;28;20363;-61
2024/01/27 04:33:41;;;;;;;5.75;3.22;;;;;;;6.18;58.24;100261.06;5075742;28;20047;-63
2024/01/27 04:36:10;;;;;;;4.85;2.80;;;;;;;6.28;58.05;100261.19;5076704;28;20041;-63
2024/01/27 04:38:35;;;;;;;5.80;3.10;;;;;;;6.28;57.50;100258.56;5075476;28;20060;-62
2024/01/27 04:41:01;;;;;;;5.80;3.10;;;;;;;6.19;57.57;100260.09;5076223;28;20035;-62
2024/01/27 04:43:26;;;;;;;4.47;2.80;;;;;;;6.22;57.39;100251.97;5075424;28;20336;-63
2024/01/27 04:45:52;;;;;;;6.93;2.67;;;;;;;6.33;57.31;100251.97;5075647;28;20036;-63
2024/01/27 04:48:17;;;;;;;4.70;2.58;;;;;;;6.41;56.80;100251.34;5075733;28;20067;-62
2024/01/27 04:50:43;;;;;;;4.72;2.72;;;;;;;6.56;56.61;100249.28;5076521;28;20028;-62
2024/01/27 04:53:08;;;;;;;7.05;4.00;;;;;;;6.52;57.04;100251.34;5076813;28;20071;-63
2024/01/27 04:55:34;;;;;;;5.50;3.03;;;;;;;6.56;57.10;100249.28;5075230;28;20318;-62
2024/01/27 04:57:59;;;;;;;6.28;2.80;;;;;;;6.50;57.30;100247.16;5076127;28;20045;-62
2024/01/27 05:00:27;;;;;;;7.00;3.20;;;;;;;6.49;57.51;100241.06;5071933;28;20064;-63
2024/01/27 05:02:53;;;;;;;7.72;3.08;;;;;;;6.54;57.09;100236.25;5074999;28;20083;-63
2024/01/27 05:05:18;;;;;;;6.35;3.30;;;;;;;6.50;57.72;100228.75;5076227;28;20323;-62
2024/01/27 05:07:44;;;;;;;7.18;2.90;;;;;;;6.60;56.16;100241.03;5075123;28;20033;-62
2024/01/27 05:10:15;;;;;;;7.57;3.45;;;;;;;6.63;55.68;100237.31;5076947;28;20035;-63
2024/01/27 05:12:41;;;;;;;4.90;2.72;;;;;;;6.64;56.20;100226.66;5073887;28;20092;-63
2024/01/27 05:15:06;;;;;;;3.75;2.70;;;;;;;6.69;56.39;100228.91;5076144;28;20235;-62
2024/01/27 05:17:32;;;;;;;3.97;2.88;;;;;;;6.42;57.05;100232.00;5075010;28;20152;-61
2024/01/27 05:19:58;;;;;;;4.72;2.90;;;;;;;6.49;57.72;100227.06;5075994;28;20106;-62
2024/01/27 05:22:24;;;;;;;5.15;2.78;;;;;;;6.51;57.83;100227.78;5073848;28;20055;-62
2024/01/27 05:24:49;;;;;;;4.97;2.97;;;;;;;6.62;56.90;100240.91;5075622;28;20033;-62
2024/01/27 05:27:15;;;;;;;6.63;3.47;;;;;;;6.59;56.82;100235.88;5075498;28;20095;-63
2024/01/27 05:29:40;;;;;;;5.38;3.53;;;;;;;6.48;57.44;100252.53;5077329;28;20340;-63
2024/01/27 05:32:06;;;;;;;9.07;4.82;;;;;;;6.41;57.86;100243.47;5078126;28;20033;-62
2024/01/27 05:34:31;;;;;;;7.65;3.85;;;;;;;6.37;57.81;100242.88;5079034;28;20341;-63
2024/01/27 05:36:57;;;;;;;7.63;4.45;;;;;;;6.50;58.43;100245.34;5078777;28;20048;-63
2024/01/27 05:39:22;;;;;;;8.38;4.53;;;;;;;6.54;57.98;100235.41;5078954;28;20032;-63
2024/01/27 05:41:48;;;;;;;12.27;7.22;;;;;;;6.58;57.15;100242.94;5080194;28;20196;-62
2024/01/27 05:44:13;;;;;;;17.40;7.88;;;;;;;6.75;56.91;100246.00;5078404;28;20335;-62
2024/01/27 05:46:39;;;;;;;15.07;6.95;;;;;;;6.91;56.93;100255.13;5079846;28;20257;-62
2024/01/27 05:49:04;;;;;;;15.70;8.70;;;;;;;6.87;57.28;100243.19;5078237;28;20039;-62
2024/01/27 05:51:31;;;;;;;26.95;15.68;;;;;;;6.85;57.63;100246.91;5079760;28;20078;-62
2024/01/27 05:53:56;;;;;;;34.38;19.08;;;;;;;6.85;58.06;100245.13;5078640;28;20028;-63
2024/01/27 05:56:22;;;;;;;19.27;12.40;;;;;;;7.00;57.99;100241.22;5079428;28;20211;-62
2024/01/27 05:58:48;;;;;;;22.50;12.48;;;;;;;7.11;57.38;100244.75;5078306;28;20237;-62
2024/01/27 06:01:14;;;;;;;23.33;13.65;;;;;;;7.17;57.51;100239.81;5078670;28;20273;-62
2024/01/27 06:03:43;;;;;;;25.75;14.32;;;;;;;7.25;57.27;100242.63;5077126;28;20354;-62
2024/01/27 06:06:08;;;;;;;24.27;12.95;;;;;;;7.31;56.97;100233.41;5078645;28;20318;-63
2024/01/27 06:08:34;;;;;;;15.43;9.25;;;;;;;7.13;55.85;100243.66;5078612;28;20047;-62
2024/01/27 06:10:59;;;;;;;16.15;7.53;;;;;;;7.04;55.63;100242.63;5078527;28;20028;-62
2024/01/27 06:13:25;;;;;;;5.13;3.60;;;;;;;6.96;56.46;100242.44;5078530;28;20040;-62
2024/01/27 06:15:50;;;;;;;5.50;4.05;;;;;;;6.88;56.92;100244.03;5078136;28;20041;-63
2024/01/27 06:18:16;;;;;;;11.65;4.93;;;;;;;6.76;59.41;100247.66;5079388;28;20044;-63
2024/01/27 06:20:42;;;;;;;10.05;5.28;;;;;;;6.68;62.23;100251.75;5077034;28;20028;-63
2024/01/27 06:23:08;;;;;;;10.25;4.93;;;;;;;6.60;63.99;100248.91;5079048;28;20363;-63
2024/01/27 06:25:34;;;;;;;7.35;3.83;;;;;;;6.58;64.47;100252.63;5078175;28;20096;-62
2024/01/27 06:27:59;;;;;;;4.63;2.97;;;;;;;6.61;63.91;100252.38;5078910;28;20411;-62
2024/01/27 06:30:25;;;;;;;6.07;3.33;;;;;;;6.58;64.22;100256.09;5077587;28;20095;-62
2024/01/27 06:32:50;;;;;;;6.13;3.58;;;;;;;6.64;63.54;100260.88;5078313;28;20296;-62
2024/01/27 06:35:16;;;;;;;5.32;3.28;;;;;;;6.62;63.89;100264.56;5076736;28;20032;-62
2024/01/27 06:37:41;;;;;;;8.07;4.65;;;;;;;6.51;64.73;100257.56;5078308;28;20036;-64
2024/01/27 06:40:09;;;;;;;9.50;5.88;;;;;;;6.61;65.34;100262.91;5078046;28;20036;-63
2024/01/27 06:42:34;;;;;;;12.30;7.18;;;;;;;6.56;65.36;100258.03;5077039;28;20355;-62
2024/01/27 06:44:59;;;;;;;8.95;6.25;;;;;;;6.68;65.87;100259.66;5077101;28;20047;-63
2024/01/27 06:47:25;;;;;;;7.65;3.83;;;;;;;6.70;65.52;100259.53;5077381;28;20341;-63
2024/01/27 06:49:50;;;;;;;5.50;3.00;;;;;;;6.83;65.97;100262.84;5078017;28;20391;-64
2024/01/27 06:52:16;;;;;;;5.53;2.97;;;;;;;6.79;66.91;100258.78;5077737;28;20040;-64
2024/01/27 06:54:43;;;;;;;5.82;3.97;;;;;;;6.76;67.07;100259.03;5078536;28;20047;-63
2024/01/27 06:57:21;;;;;;;8.38;4.32;;;;;;;6.82;66.93;100245.38;5075687;28;20074;-63
2024/01/27 06:59:55;;;;;;;7.43;4.00;;;;;;;6.90;64.12;100256.09;5078953;28;20074;-62
2024/01/27 07:02:24;;;;;;;8.90;5.28;;;;;;;6.94;63.42;100251.41;5075431;28;20112;-63
2024/01/27 07:04:50;;;;;;;11.38;5.68;;;;;;;6.93;63.80;100253.22;5078675;28;20036;-62
2024/01/27 07:07:16;;;;;;;8.82;4.97;;;;;;;6.87;63.43;100252.88;5075373;28;20058;-64
2024/01/27 07:09:41;;;;;;;11.55;4.75;;;;;;;6.80;64.27;100257.81;5078013;28;20334;-64
2024/01/27 07:12:08;;;;;;;7.78;4.68;;;;;;;6.83;66.37;100260.19;5076592;28;20041;-62
2024/01/27 07:14:34;;;;;;;8.52;4.40;;;;;;;6.86;67.37;100252.06;5077563;28;20090;-62
2024/01/27 07:17:00;;;;;;;7.15;4.28;;;;;;;6.93;67.86;100255.84;5076720;28;20329;-62
2024/01/27 07:19:25;;;;;;;9.20;5.18;;;;;;;6.96;68.35;100260.88;5077106;28;20202;-64
2024/01/27 07:21:51;;;;;;;8.02;4.47;;;;;;;7.03;69.98;100261.19;5076533;28;20059;-63
2024/01/27 07:24:16;;;;;;;5.38;3.70;;;;;;;7.17;69.62;100257.41;5077240;28;20090;-62
2024/01/27 07:26:42;;;;;;;9.43;4.55;;;;;;;7.32;68.60;100246.47;5077479;28;20036;-63
2024/01/27 07:29:07;;;;;;;7.75;4.03;;;;;;;7.44;69.31;100254.28;5076347;28;20084;-62
2024/01/27 07:31:33;;;;;;;5.15;3.40;;;;;;;7.42;68.66;100250.97;5078028;28;20069;-64
2024/01/27 07:33:59;;;;;;;7.80;3.85;;;;;;;7.36;68.58;100254.94;5072691;28;20322;-62
2024/01/27 07:36:25;;;;;;;7.22;3.55;;;;;;;7.26;68.37;100252.22;5078962;28;20028;-63
2024/01/27 07:38:51;;;;;;;7.05;3.47;;;;;;;7.09;68.31;100263.31;5077393;28;20103;-62
2024/01/27 07:41:16;;;;;;;7.38;3.58;;;;;;;7.08;67.48;100260.81;5078188;28;20234;-62
2024/01/27 07:43:42;;;;;;;4.88;2.75;;;;;;;7.04;68.00;100255.81;5071844;28;20047;-62
2024/01/27 07:46:07;;;;;;;6.68;3.63;;;;;;;7.03;69.40;100245.41;5078623;28;20047;-63
2024/01/27 07:48:33;;;;;;;7.85;4.47;;;;;;;6.90;69.11;100242.94;5075254;28;20037;-64
2024/01/27 07:50:59;;;;;;;8.98;5.63;;;;;;;6.89;70.27;100236.00;5077502;28;20223;-63
2024/01/27 07:53:24;;;;;;;10.85;5.60;;;;;;;6.89;70.61;100233.38;5069535;28;20043;-62
2024/01/27 07:55:50;;;;;;;8.27;5.13;;;;;;;6.85;70.62;100225.84;5077369;28;20040;-62
2024/01/27 07:58:16;;;;;;;8.40;4.82;;;;;;;6.85;72.68;100221.44;5073016;28;20037;-64
2024/01/27 08:00:41;;;;;;;4.10;2.90;;;;;;;6.85;72.20;100213.53;5076446;28;20047;-64
2024/01/27 08:03:07;;;;;;;5.28;4.05;;;;;;;6.91;72.60;100213.03;5077397;28;20060;-62
2024/01/27 08:05:32;;;;;;;4.43;2.97;;;;;;;6.92;73.40;100209.44;5077471;28;20029;-63
2024/01/27 08:07:58;;;;;;;5.63;3.78;;;;;;;6.94;72.99;100194.34;5078145;28;20330;-63
2024/01/27 08:10:23;;;;;;;5.75;3.42;;;;;;;6.94;74.20;100193.50;5070199;28;20043;-63
2024/01/27 08:12:49;;;;;;;5.38;2.95;;;;;;;7.07;75.20;100183.63;5077744;28;20157;-63
2024/01/27 08:15:14;;;;;;;5.43;2.72;;;;;;;7.18;75.89;100180.06;5075425;28;20039;-63
2024/01/27 08:17:40;;;;;;;7.82;3.80;;;;;;;7.28;76.44;100181.84;5078008;28;20218;-64
2024/01/27 08:20:06;;;;;;;5.80;3.15;;;;;;;7.40;77.16;100172.03;5069525;28;20028;-65
2024/01/27 08:22:31;;;;;;;7.10;3.83;;;;;;;7.48;77.69;100176.66;5076699;28;20048;-63
2024/01/27 08:24:57;;;;;;;6.95;3.95;;;;;;;7.52;78.28;100180.69;5074073;28;20062;-63
2024/01/27 08:27:22;;;;;;;5.85;3.40;;;;;;;7.53;78.47;100167.41;5077133;28;20047;-64
2024/01/27 08:29:48;;;;;;;4.43;2.65;;;;;;;7.56;80.62;100163.66;5070242;28;20327;-64
2024/01/27 08:32:14;;;;;;;5.15;2.58;;;;;;;7.59;81.50;100156.31;5074202;28;20480;-64
2024/01/27 08:34:39;;;;;;;5.43;2.30;;;;;;;7.66;81.35;100157.47;5071969;28;20037;-62
2024/01/27 08:37:16;;;;;;;2.97;1.95;;;;;;;7.73;81.49;100159.56;5075113;28;20086;-63
2024/01/27 08:39:41;;;;;;;1.83;1.70;;;;;;;7.75;81.24;100155.81;5077134;28;20142;-63
2024/01/27 08:42:07;;;;;;;2.65;1.92;;;;;;;7.83;80.58;100165.69;5076209;28;20044;-64
2024/01/27 08:44:33;;;;;;;3.65;2.00;;;;;;;7.75;80.67;100168.16;5077840;28;20059;-63
2024/01/27 08:46:58;;;;;;;2.45;1.40;;;;;;;7.80;80.62;100169.44;5069325;28;20238;-63
2024/01/27 08:49:23;;;;;;;2.17;1.65;;;;;;;7.92;80.28;100176.28;5078200;28;20036;-62
2024/01/27 08:51:49;;;;;;;2.75;1.83;;;;;;;7.96;79.33;100184.75;5076174;28;20272;-64
2024/01/27 08:54:14;;;;;;;3.70;2.08;;;;;;;7.91;78.54;100179.88;5077729;28;20331;-64
2024/01/27 08:56:41;;;;;;;4.70;1.98;;;;;;;8.12;77.93;100179.78;5068292;28;20037;-63
2024/01/27 08:59:06;;;;;;;2.38;1.58;;;;;;;8.23;76.88;100189.38;5071535;28;20056;-63
2024/01/27 09:01:32;;;;;;;3.63;1.50;;;;;;;8.12;77.12;100174.50;5070775;28;20087;-63
2024/01/27 09:03:57;;;;;;;2.90;1.67;;;;;;;8.21;77.34;100191.31;5078102;28;20039;-63
2024/01/27 09:06:23;;;;;;;3.17;2.10;;;;;;;8.23;77.14;100205.22;5080244;28;20230;-64
2024/01/27 09:08:48;;;;;;;4.93;2.00;;;;;;;8.29;77.31;100216.06;5081125;28;20223;-63
2024/01/27 09:11:14;;;;;;;3.30;1.98;;;;;;;8.36;77.32;100202.38;5080092;28;20032;-62
2024/01/27 09:13:39;;;;;;;3.05;1.90;;;;;;;8.29;77.10;100197.59;5079151;28;20033;-62
2024/01/27 09:16:05;;;;;;;2.63;2.10;;;;;;;8.49;76.88;100198.50;5080191;28;20210;-63
2024/01/27 09:18:31;;;;;;;4.78;2.58;;;;;;;8.57;77.06;100188.09;5080108;28;20043;-63
2024/01/27 09:20:56;;;;;;;3.30;2.13;;;;;;;8.65;78.47;100190.03;5079376;28;20069;-62
2024/01/27 09:23:21;;;;;;;2.60;1.50;;;;;;;8.81;77.03;100189.50;5079717;28;20726;-62
2024/01/27 09:25:47;;;;;;;3.75;1.98;;;;;;;8.93;76.96;100189.19;5080006;28;20040;-63
2024/01/27 09:28:12;;;;;;;5.97;2.97;;;;;;;9.13;73.28;100187.38;5080041;28;20564;-63
2024/01/27 09:30:38;;;;;;;5.13;1.80;;;;;;;9.33;69.85;100179.38;5079460;28;20032;-62
2024/01/27 09:33:04;;;;;;;6.35;2.25;;;;;;;9.54;67.26;100172.13;5079569;28;20043;-62
2024/01/27 09:35:29;;;;;;;2.33;1.60;;;;;;;9.64;65.74;100169.44;5079880;28;20108;-64
2024/01/27 09:37:55;;;;;;;2.10;1.75;;;;;;;9.85;64.47;100172.69;5079489;28;20253;-63
2024/01/27 09:40:20;;;;;;;4.30;1.65;;;;;;;10.05;64.02;100173.41;5078560;28;20484;-63
2024/01/27 09:42:54;;;;;;;3.85;1.75;;;;;;;10.21;63.62;100169.16;5079104;28;20051;-63
2024/01/27 09:45:22;;;;;;;2.67;2.20;;;;;;;10.49;63.85;100172.59;5079369;28;20036;-64
2024/01/27 09:47:49;;;;;;;2.55;1.90;;;;;;;10.69;63.25;100169.81;5079598;28;20040;-63
2024/01/27 09:50:17;;;;;;;2.78;1.77;;;;;;;10.68;61.04;100157.53;5079777;28;20100;-62
2024/01/27 09:52:43;;;;;;;5.13;2.40;;;;;;;10.78;62.89;100158.28;5079433;28;20041;-62
2024/01/27 09:55:09;;;;;;;5.45;2.30;;;;;;;10.71;60.94;100157.25;5079614;28;20052;-62
2024/01/27 09:57:38;;;;;;;7.88;2.13;;;;;;;10.76;60.03;100139.91;5078971;28;20033;-62
2024/01/27 10:00:05;;;;;;;3.63;2.20;;;;;;;10.66;60.13;100155.06;5077474;28;20090;-63
2024/01/27 10:02:32;;;;;;;2.38;2.17;;;;;;;10.67;60.18;100134.69;5077387;28;20048;-63
2024/01/27 10:05:00;;;;;;;2.88;1.85;;;;;;;10.66;59.68;100149.75;5078183;28;20103;-63
2024/01/27 10:07:25;;;;;;;3.05;2.33;;;;;;;10.59;59.72;100150.50;5078656;28;20029;-64
2024/01/27 10:09:51;;;;;;;2.53;2.28;;;;;;;10.17;60.96;100141.28;5078858;28;20055;-63
2024/01/27 10:12:19;;;;;;;2.78;1.55;;;;;;;10.20;61.32;100143.66;5078524;28;20331;-61
2024/01/27 10:14:46;;;;;;;2.83;2.63;;;;;;;10.18;60.79;100145.59;5077105;28;20036;-63
2024/01/27 10:17:12;;;;;;;3.08;2.17;;;;;;;9.99;61.09;100166.06;5076365;28;20025;-63
2024/01/27 10:19:37;;;;;;;5.65;3.58;;;;;;;9.94;62.03;100169.16;5077867;28;20468;-64
2024/01/27 10:22:03;;;;;;;3.45;3.03;;;;;;;9.84;63.06;100169.19;5077218;28;20249;-63
2024/01/27 10:24:31;;;;;;;1.63;1.52;;;;;;;9.88;62.23;100180.31;5077430;28;20029;-63
2024/01/27 10:27:03;;;;;;;1.88;1.30;;;;;;;9.96;60.69;100179.59;5077390;28;20037;-63
2024/01/27 10:29:29;;;;;;;2.08;1.73;;;;;;;10.16;60.89;100183.78;5077820;28;20040;-63
2024/01/27 10:31:55;;;;;;;2.03;1.70;;;;;;;10.29;59.11;100180.81;5078356;28;20040;-63
2024/01/27 10:34:20;;;;;;;2.17;1.98;;;;;;;10.22;59.30;100186.69;5077933;28;20048;-62
2024/01/27 10:36:46;;;;;;;4.53;1.92;;;;;;;10.25;58.22;100182.91;5077944;28;20051;-64
2024/01/27 10:39:22;;;;;;;4.50;2.25;;;;;;;10.43;59.06;100178.50;5077979;28;20361;-62
2024/01/27 10:41:49;;;;;;;3.20;2.55;;;;;;;10.68;59.63;100173.44;5077956;28;20047;-63
2024/01/27 10:44:17;;;;;;;1.98;1.88;;;;;;;10.70;60.35;100166.16;5077680;28;20036;-62
2024/01/27 10:46:49;;;;;;;3.05;2.72;;;;;;;10.82;59.28;100164.94;5076042;28;20098;-62
2024/01/27 10:49:17;;;;;;;2.33;1.83;;;;;;;10.85;58.70;100164.63;5077298;28;20103;-64
2024/01/27 10:51:51;;;;;;;3.17;2.28;;;;;;;10.68;58.92;100157.53;5077168;28;20025;-63
2024/01/27 10:54:24;;;;;;;3.30;2.60;;;;;;;10.75;59.52;100154.13;5077487;28;20036;-63
2024/01/27 10:56:53;;;;;;;3.20;2.58;;;;;;;10.62;59.13;100142.25;5077843;28;20059;-62
2024/01/27 10:59:19;;;;;;;5.07;2.20;;;;;;;10.43;58.46;100135.31;5077747;28;20042;-63
2024/01/27 11:01:46;;;;;;;4.55;1.92;;;;;;;10.22;59.71;100146.16;5077031;28;20040;-62
2024/01/27 11:04:13;;;;;;;3.33;1.65;;;;;;;10.37;59.40;100142.00;5077430;28;20075;-62
2024/01/27 11:06:41;;;;;;;3.15;1.63;;;;;;;10.50;57.54;100154.91;5077540;28;20422;-62
2024/01/27 11:09:08;;;;;;;2.05;1.77;;;;;;;10.60;57.92;100136.28;5076554;28;20238;-62
2024/01/27 11:11:35;;;;;;;1.55;1.42;;;;;;;10.70;59.05;100134.38;5077492;28;20100;-64
2024/01/27 11:14:01;;;;;;;3.38;1.85;;;;;;;10.80;58.56;100138.59;5076979;28;20040;-63
2024/01/27 11:16:28;;;;;;;4.07;1.83;;;;;;;10.84;58.61;100147.09;5076973;28;20032;-62
2024/01/27 11:18:54;;;;;;;2.90;1.70;;;;;;;10.84;57.62;100141.78;5077409;28;20053;-62
2024/01/27 11:21:20;;;;;;;1.88;1.75;;;;;;;10.90;58.00;100137.69;5076524;28;20032;-62
2024/01/27 11:23:47;;;;;;;2.40;1.45;;;;;;;10.74;57.93;100139.22;5077496;28;20028;-63
2024/01/27 11:26:19;;;;;;;2.15;1.52;;;;;;;10.73;58.25;100145.50;5077069;28;20102;-64